createdAt,value
2018-06-07T00:01:27.218Z,69.45
2018-06-07T00:03:55.382Z,70.43
2018-06-07T00:06:23.539Z,69.86
2018-06-07T00:08:51.686Z,70.96
2018-06-07T00:11:19.860Z,70.42
2018-06-07T00:13:48.015Z,71.16
2018-06-07T00:16:16.171Z,71.46
2018-06-07T00:18:44.345Z,71.32
2018-06-07T00:21:12.502Z,71.49
2018-06-07T00:23:40.888Z,70.99
2018-06-07T00:26:09.043Z,71.24
2018-06-07T00:28:37.203Z,71.65
2018-06-07T00:31:05.359Z,71.87
2018-06-07T00:33:33.506Z,72.18
2018-06-07T00:36:01.666Z,71.61
2018-06-07T00:38:29.817Z,71.51
2018-06-07T00:40:57.998Z,71.66
2018-06-07T00:43:26.151Z,71.97
2018-06-07T00:45:54.342Z,71.88
2018-06-07T00:48:22.605Z,72.83
2018-06-07T00:50:50.762Z,73.29
2018-06-07T00:53:18.918Z,73.87
2018-06-07T00:55:47.070Z,74.10
2018-06-07T00:58:15.236Z,74.28
2018-06-07T01:00:43.394Z,75.11
2018-06-07T01:03:11.570Z,75.30
2018-06-07T01:05:39.735Z,75.28
2018-06-07T01:08:07.903Z,75.86
2018-06-07T01:10:36.071Z,76.10
2018-06-07T01:13:04.258Z,75.53
2018-06-07T01:15:32.414Z,75.90
2018-06-07T01:18:00.562Z,76.47
2018-06-07T01:20:28.730Z,77.06
2018-06-07T01:22:56.886Z,76.40
2018-06-07T01:25:25.359Z,76.95
2018-06-07T01:27:53.510Z,76.37
2018-06-07T01:30:31.750Z,76.51
2018-06-07T01:33:27.534Z,77.28
2018-06-07T01:35:56.882Z,76.65
2018-06-07T01:38:36.438Z,75.94
2018-06-07T01:41:04.608Z,74.47
2018-06-07T01:43:32.758Z,75.02
2018-06-07T01:46:00.959Z,75.44
2018-06-07T01:48:29.113Z,75.87
2018-06-07T01:50:57.290Z,75.78
2018-06-07T01:53:25.454Z,76.48
2018-06-07T01:55:53.814Z,75.60
2018-06-07T01:58:21.979Z,75.39
2018-06-07T02:00:50.146Z,76.36
2018-06-07T02:03:18.307Z,75.84
2018-06-07T02:05:46.458Z,75.69
2018-06-07T02:08:14.614Z,74.74
2018-06-07T02:10:42.781Z,74.88
2018-06-07T02:13:10.962Z,74.34
2018-06-07T02:15:39.110Z,75.02
2018-06-07T02:18:07.327Z,74.28
2018-06-07T02:20:35.479Z,74.59
2018-06-07T02:23:03.639Z,75.41
2018-06-07T02:25:31.806Z,75.24
2018-06-07T02:27:59.967Z,75.54
2018-06-07T02:30:28.122Z,75.05
2018-06-07T02:32:56.370Z,75.60
2018-06-07T02:35:24.509Z,75.53
2018-06-07T02:37:52.657Z,76.64
2018-06-07T02:40:20.822Z,76.68
2018-06-07T02:42:48.973Z,77.62
2018-06-07T02:45:17.127Z,78.35
2018-06-07T02:47:45.282Z,77.43
2018-06-07T02:50:13.438Z,77.33
2018-06-07T02:52:41.630Z,77.99
2018-06-07T02:55:09.782Z,77.51
2018-06-07T02:57:37.930Z,77.85
2018-06-07T03:00:06.122Z,77.67
2018-06-07T03:02:34.278Z,78.17
2018-06-07T03:05:02.910Z,78.29
2018-06-07T03:07:31.074Z,78.54
2018-06-07T03:09:59.249Z,78.57
2018-06-07T03:12:27.406Z,79.42
2018-06-07T03:14:55.561Z,79.61
2018-06-07T03:17:23.724Z,79.46
2018-06-07T03:19:51.886Z,80.21
2018-06-07T03:22:20.047Z,80.14
2018-06-07T03:24:48.219Z,80.89
2018-06-07T03:27:16.376Z,80.66
2018-06-07T03:29:44.518Z,80.80
2018-06-07T03:32:12.671Z,81.04
2018-06-07T03:34:40.834Z,81.89
2018-06-07T03:37:08.982Z,81.18
2018-06-07T03:39:37.155Z,81.54
2018-06-07T03:42:05.338Z,81.90
2018-06-07T03:44:33.510Z,82.82
2018-06-07T03:47:01.723Z,82.47
2018-06-07T03:49:29.878Z,82.56
2018-06-07T03:51:58.066Z,82.43
2018-06-07T03:54:26.235Z,82.82
2018-06-07T03:56:54.398Z,83.09
2018-06-07T03:59:22.542Z,83.13
2018-06-07T04:01:50.703Z,83.03
2018-06-07T04:04:18.878Z,83.13
2018-06-07T04:06:47.022Z,84.09
2018-06-07T04:09:15.166Z,83.62
2018-06-07T04:11:43.330Z,83.01
2018-06-07T04:14:11.490Z,83.57
2018-06-07T04:16:39.691Z,83.36
2018-06-07T04:19:07.890Z,84.38
2018-06-07T04:21:36.062Z,83.84
2018-06-07T04:24:04.219Z,83.06
2018-06-07T04:26:32.388Z,84.23
2018-06-07T04:29:00.542Z,83.81
2018-06-07T04:31:28.696Z,83.99
2018-06-07T04:33:56.848Z,82.95
2018-06-07T04:36:24.998Z,83.24
2018-06-07T04:38:53.168Z,83.89
2018-06-07T04:41:21.337Z,83.43
2018-06-07T04:43:49.498Z,83.21
2018-06-07T04:46:17.654Z,82.86
2018-06-07T04:48:45.826Z,82.45
2018-06-07T04:51:13.983Z,80.43
2018-06-07T04:53:42.183Z,80.54
2018-06-07T04:56:10.339Z,78.88
2018-06-07T04:58:38.502Z,77.00
2018-06-07T05:01:06.775Z,78.41
2018-06-07T05:03:34.926Z,75.20
2018-06-07T05:06:03.099Z,76.18
2018-06-07T05:08:31.254Z,77.05
2018-06-07T05:10:59.405Z,77.47
2018-06-07T05:13:27.562Z,76.42
2018-06-07T05:15:55.711Z,74.90
2018-06-07T05:18:23.875Z,74.21
2018-06-07T05:20:52.036Z,73.85
2018-06-07T05:23:20.186Z,73.26
2018-06-07T05:25:48.410Z,72.77
2018-06-07T05:28:16.566Z,71.54
2018-06-07T05:30:44.770Z,72.65
2018-06-07T05:33:12.931Z,71.48
2018-06-07T05:35:41.355Z,71.27
2018-06-07T05:38:09.519Z,72.29
2018-06-07T05:40:37.681Z,71.67
2018-06-07T05:43:06.030Z,70.16
2018-06-07T05:45:34.190Z,69.92
2018-06-07T05:48:02.350Z,70.09
2018-06-07T05:50:30.509Z,70.76
2018-06-07T05:52:58.667Z,69.81
2018-06-07T05:55:26.822Z,69.75
2018-06-07T05:57:55.002Z,71.10
2018-06-07T06:00:23.162Z,70.78
2018-06-07T06:02:51.437Z,70.69
2018-06-07T06:05:19.555Z,70.49
2018-06-07T06:07:47.746Z,70.72
2018-06-07T06:10:15.903Z,69.39
2018-06-07T06:12:44.073Z,69.90
2018-06-07T06:15:12.224Z,69.42
2018-06-07T06:17:40.386Z,70.66
2018-06-07T06:20:08.693Z,70.38
2018-06-07T06:22:36.861Z,69.59
2018-06-07T06:25:05.176Z,70.33
2018-06-07T06:27:33.342Z,68.49
2018-06-07T06:30:01.507Z,68.45
2018-06-07T06:32:30.164Z,66.82
2018-06-07T06:34:58.323Z,67.52
2018-06-07T06:37:37.004Z,67.01
2018-06-07T06:40:05.138Z,65.39
2018-06-07T06:42:33.318Z,67.28
2018-06-07T06:45:01.503Z,66.86
2018-06-07T06:47:29.663Z,68.12
2018-06-07T06:49:57.882Z,67.42
2018-06-07T06:52:26.042Z,67.21
2018-06-07T06:54:54.222Z,67.48
2018-06-07T06:57:22.383Z,68.46
2018-06-07T06:59:50.546Z,68.45
2018-06-07T07:02:18.718Z,67.84
2018-06-07T07:04:46.882Z,67.18
2018-06-07T07:07:15.058Z,68.95
2018-06-07T07:09:43.220Z,69.05
2018-06-07T07:12:11.419Z,68.49
2018-06-07T07:14:39.593Z,68.03
2018-06-07T07:17:07.811Z,66.28
2018-06-07T07:19:35.970Z,68.66
2018-06-07T07:22:04.123Z,69.01
2018-06-07T07:24:32.297Z,66.67
2018-06-07T07:27:00.462Z,67.89
2018-06-07T07:29:28.639Z,68.87
2018-06-07T07:31:56.811Z,67.86
2018-06-07T07:34:25.008Z,68.13
2018-06-07T07:36:53.150Z,67.71
2018-06-07T07:39:21.328Z,67.67
2018-06-07T07:41:49.513Z,66.93
2018-06-07T07:44:17.665Z,66.86
2018-06-07T07:46:45.842Z,68.18
2018-06-07T07:49:14.039Z,66.31
2018-06-07T07:51:42.210Z,67.98
2018-06-07T07:54:10.381Z,66.30
2018-06-07T07:56:38.546Z,66.07
2018-06-07T07:59:06.730Z,65.59
2018-06-07T08:01:34.895Z,66.39
2018-06-07T08:04:03.067Z,64.78
2018-06-07T08:06:31.231Z,64.42
2018-06-07T08:08:59.386Z,65.12
2018-06-07T08:11:27.558Z,66.70
2018-06-07T08:13:55.724Z,67.72
2018-06-07T08:16:23.878Z,64.98
2018-06-07T08:18:52.074Z,63.69
2018-06-07T08:21:20.259Z,64.94
2018-06-07T08:23:48.419Z,64.11
2018-06-07T08:26:16.606Z,64.12
2018-06-07T08:28:44.786Z,63.41
2018-06-07T08:31:12.955Z,62.56
2018-06-07T08:33:41.113Z,64.00
2018-06-07T08:36:09.291Z,63.77
2018-06-07T08:38:37.463Z,62.02
2018-06-07T08:41:05.692Z,61.22
2018-06-07T08:43:33.858Z,61.23
2018-06-07T08:46:02.044Z,61.45
2018-06-07T08:48:30.211Z,63.84
2018-06-07T08:50:58.378Z,62.33
2018-06-07T08:53:26.550Z,63.27
2018-06-07T08:55:54.710Z,62.21
2018-06-07T08:58:22.867Z,60.47
2018-06-07T09:00:51.260Z,59.93
2018-06-07T09:03:19.446Z,58.95
2018-06-07T09:05:47.619Z,59.37
2018-06-07T09:08:15.778Z,59.53
2018-06-07T09:10:44.090Z,61.12
2018-06-07T09:13:12.250Z,62.57
2018-06-07T09:15:40.426Z,59.59
2018-06-07T09:18:08.574Z,61.06
2018-06-07T09:20:36.730Z,58.75
2018-06-07T09:23:04.918Z,58.59
2018-06-07T09:25:33.069Z,57.43
2018-06-07T09:28:01.231Z,59.03
2018-06-07T09:30:29.390Z,57.27
2018-06-07T09:32:57.542Z,54.37
2018-06-07T09:35:25.945Z,56.79
2018-06-07T09:37:54.114Z,55.96
2018-06-07T09:40:22.279Z,53.85
2018-06-07T09:42:50.494Z,54.27
2018-06-07T09:45:18.684Z,54.81
2018-06-07T09:47:46.852Z,55.30
2018-06-07T09:50:15.031Z,51.71
2018-06-07T09:52:43.235Z,52.83
2018-06-07T09:55:13.770Z,50.83
2018-06-07T09:57:42.730Z,51.21
2018-06-07T10:00:15.370Z,49.15
2018-06-07T10:02:43.543Z,49.07
2018-06-07T10:05:11.734Z,49.03
2018-06-07T10:07:39.925Z,48.72
2018-06-07T10:10:08.106Z,50.36
2018-06-07T10:12:36.278Z,46.65
2018-06-07T10:15:04.639Z,48.62
2018-06-07T10:17:32.807Z,51.07
2018-06-07T10:20:00.955Z,49.65
2018-06-07T10:22:29.161Z,48.18
2018-06-07T10:24:57.262Z,49.00
2018-06-07T10:27:25.441Z,48.32
2018-06-07T10:29:53.606Z,48.01
2018-06-07T10:32:21.762Z,45.50
2018-06-07T10:34:49.923Z,48.74
2018-06-07T10:37:18.086Z,46.64
2018-06-07T10:39:46.247Z,45.50
2018-06-07T10:42:14.406Z,47.19
2018-06-07T10:44:42.558Z,46.39
2018-06-07T10:47:10.734Z,45.48
2018-06-07T10:49:38.899Z,43.52
2018-06-07T10:52:07.083Z,44.77
2018-06-07T10:54:35.234Z,42.88
2018-06-07T10:57:03.746Z,42.19
2018-06-07T10:59:31.923Z,43.85
2018-06-07T11:02:00.096Z,43.86
2018-06-07T11:04:28.255Z,44.48
2018-06-07T11:06:56.410Z,45.20
2018-06-07T11:09:24.558Z,44.13
2018-06-07T11:11:52.712Z,45.56
2018-06-07T11:14:20.873Z,43.29
2018-06-07T11:16:49.020Z,41.98
2018-06-07T11:19:17.178Z,43.05
2018-06-07T11:21:45.335Z,43.20
2018-06-07T11:24:13.530Z,45.35
2018-06-07T11:26:41.698Z,42.96
2018-06-07T11:29:09.845Z,44.32
2018-06-07T11:31:38.010Z,42.09
2018-06-07T11:34:06.158Z,43.05
2018-06-07T11:36:34.338Z,43.15
2018-06-07T11:39:02.530Z,40.61
2018-06-07T11:41:30.694Z,40.45
2018-06-07T11:43:58.858Z,42.23
2018-06-07T11:46:27.438Z,42.67
2018-06-07T11:48:55.673Z,43.98
2018-06-07T11:51:23.771Z,42.73
2018-06-07T11:53:51.974Z,42.99
2018-06-07T11:56:20.150Z,43.10
2018-06-07T11:58:48.318Z,44.97
2018-06-07T12:01:16.474Z,43.21
2018-06-07T12:03:44.646Z,44.75
2018-06-07T12:06:12.807Z,44.46
2018-06-07T12:08:40.983Z,41.65
2018-06-07T12:11:09.127Z,42.65
2018-06-07T12:13:37.288Z,44.35
2018-06-07T12:16:05.466Z,43.03
2018-06-07T12:18:33.634Z,42.77
2018-06-07T12:21:01.809Z,45.03
2018-06-07T12:23:29.968Z,46.21
2018-06-07T12:25:58.144Z,44.71
2018-06-07T12:28:26.311Z,44.39
2018-06-07T12:30:54.471Z,45.18
2018-06-07T12:33:22.655Z,44.53
2018-06-07T12:35:50.824Z,44.40
2018-06-07T12:38:18.990Z,42.90
2018-06-07T12:40:47.178Z,44.01
2018-06-07T12:43:15.367Z,44.51
2018-06-07T12:45:43.546Z,44.77
2018-06-07T12:48:11.694Z,42.83
2018-06-07T12:50:39.862Z,43.31
2018-06-07T12:53:08.086Z,45.23
2018-06-07T12:55:36.242Z,44.80
2018-06-07T12:58:04.424Z,44.33
2018-06-07T13:00:32.629Z,45.04
2018-06-07T13:03:00.739Z,44.85
2018-06-07T13:05:28.911Z,44.39
2018-06-07T13:07:57.066Z,45.74
2018-06-07T13:10:25.270Z,47.16
2018-06-07T13:12:53.422Z,47.65
2018-06-07T13:15:21.594Z,46.13
2018-06-07T13:17:49.750Z,46.21
2018-06-07T13:20:17.912Z,45.70
2018-06-07T13:22:46.064Z,47.67
2018-06-07T13:25:14.211Z,47.60
2018-06-07T13:27:42.410Z,47.10
2018-06-07T13:30:10.558Z,46.56
2018-06-07T13:32:39.069Z,45.87
2018-06-07T13:35:07.219Z,46.28
2018-06-07T13:37:35.459Z,43.69
2018-06-07T13:40:03.668Z,45.71
2018-06-07T13:42:32.102Z,44.94
2018-06-07T13:45:00.294Z,44.15
2018-06-07T13:47:28.430Z,44.88
2018-06-07T13:49:56.602Z,43.46
2018-06-07T13:52:24.770Z,43.31
2018-06-07T13:54:52.963Z,43.11
2018-06-07T13:57:21.114Z,44.08
2018-06-07T13:59:49.275Z,45.13
2018-06-07T14:02:17.438Z,43.97
2018-06-07T14:04:45.586Z,43.31
2018-06-07T14:07:14.080Z,45.77
2018-06-07T14:09:42.222Z,44.19
2018-06-07T14:12:10.377Z,42.92
2018-06-07T14:14:38.542Z,43.07
2018-06-07T14:17:06.683Z,44.15
2018-06-07T14:19:34.842Z,46.44
2018-06-07T14:22:02.998Z,45.55
2018-06-07T14:24:31.154Z,45.52
2018-06-07T14:26:59.322Z,45.56
2018-06-07T14:29:27.478Z,46.02
2018-06-07T14:31:55.671Z,46.65
2018-06-07T14:34:23.910Z,46.90
2018-06-07T14:36:52.142Z,48.00
2018-06-07T14:39:20.324Z,47.36
2018-06-07T14:41:48.514Z,48.59
2018-06-07T14:44:16.689Z,46.89
2018-06-07T14:46:45.148Z,47.18
2018-06-07T14:49:13.303Z,45.21
2018-06-07T14:51:41.527Z,46.20
2018-06-07T14:54:09.754Z,45.63
2018-06-07T14:56:37.910Z,42.89
2018-06-07T14:59:06.063Z,44.80
2018-06-07T15:01:34.206Z,44.13
2018-06-07T15:04:02.426Z,44.17
2018-06-07T15:06:30.610Z,46.68
2018-06-07T15:08:58.771Z,45.69
2018-06-07T15:11:26.924Z,45.25
2018-06-07T15:13:55.094Z,43.33
2018-06-07T15:16:23.255Z,43.38
2018-06-07T15:18:51.497Z,45.90
2018-06-07T15:21:19.606Z,47.94
2018-06-07T15:23:47.770Z,43.02
2018-06-07T15:26:15.934Z,44.89
2018-06-07T15:28:44.079Z,44.32
2018-06-07T15:31:12.234Z,45.20
2018-06-07T15:33:40.386Z,47.37
2018-06-07T15:36:08.554Z,49.27
2018-06-07T15:38:36.710Z,50.53
2018-06-07T15:41:04.902Z,50.82
2018-06-07T15:43:33.084Z,52.59
2018-06-07T15:46:01.267Z,52.66
2018-06-07T15:48:29.440Z,57.86
2018-06-07T15:50:57.594Z,66.48
2018-06-07T15:53:25.766Z,70.29
2018-06-07T15:55:53.946Z,80.59
2018-06-07T15:58:22.125Z,88.82
2018-06-07T16:00:50.565Z,91.66
2018-06-07T16:03:18.734Z,91.54
2018-06-07T16:05:46.894Z,95.31
2018-06-07T16:08:15.050Z,98.22
2018-06-07T16:10:43.202Z,100.00
2018-06-07T16:13:11.366Z,99.33
2018-06-07T16:15:39.530Z,99.86
2018-06-07T16:18:07.705Z,99.59
2018-06-07T16:20:35.870Z,99.36
2018-06-07T16:23:04.038Z,100.00
2018-06-07T16:25:32.226Z,100.00
2018-06-07T16:28:00.378Z,100.00
2018-06-07T16:30:28.593Z,98.52
2018-06-07T16:32:56.711Z,99.63
2018-06-07T16:35:24.879Z,100.00
2018-06-07T16:37:53.081Z,100.00
2018-06-07T16:40:21.267Z,100.00
2018-06-07T16:42:49.426Z,100.00
2018-06-07T16:45:17.596Z,100.00
2018-06-07T16:47:45.758Z,100.00
2018-06-07T16:50:13.930Z,100.00
2018-06-07T16:52:42.082Z,100.00
2018-06-07T16:55:10.245Z,100.00
2018-06-07T16:57:38.432Z,100.00
2018-06-07T17:00:06.582Z,100.00
2018-06-07T17:02:34.742Z,100.00
2018-06-07T17:05:02.910Z,100.00
2018-06-07T17:07:31.071Z,100.00
2018-06-07T17:09:59.241Z,100.00
2018-06-07T17:12:27.424Z,100.00
2018-06-07T17:14:55.583Z,100.00
2018-06-07T17:17:23.754Z,100.00
2018-06-07T17:19:51.903Z,100.00
2018-06-07T17:22:20.067Z,100.00
2018-06-07T17:24:48.220Z,100.00
2018-06-07T17:27:16.391Z,100.00
2018-06-07T17:29:44.559Z,100.00
2018-06-07T17:32:12.733Z,100.00
2018-06-07T17:34:40.902Z,100.00
2018-06-07T17:37:09.075Z,100.00
2018-06-07T17:39:37.226Z,100.00
2018-06-07T17:42:05.530Z,100.00
2018-06-07T17:44:33.670Z,100.00
2018-06-07T17:47:01.843Z,100.00
2018-06-07T17:49:30.016Z,100.00
2018-06-07T17:51:58.264Z,100.00
2018-06-07T17:54:26.370Z,100.00
2018-06-07T17:56:54.542Z,100.00
2018-06-07T17:59:22.749Z,100.00
2018-06-07T18:01:50.871Z,100.00
2018-06-07T18:04:19.022Z,100.00
2018-06-07T18:06:47.217Z,100.00
2018-06-07T18:09:15.378Z,100.00
2018-06-07T18:11:43.553Z,100.00
2018-06-07T18:14:11.746Z,100.00
2018-06-07T18:16:39.878Z,100.00
2018-06-07T18:19:08.031Z,100.00
2018-06-07T18:21:36.186Z,100.00
2018-06-07T18:24:04.359Z,100.00
2018-06-07T18:26:32.534Z,100.00
2018-06-07T18:29:00.702Z,100.00
2018-06-07T18:31:28.876Z,100.00
2018-06-07T18:33:57.042Z,100.00
2018-06-07T18:36:25.198Z,100.00
2018-06-07T18:38:53.358Z,100.00
2018-06-07T18:41:21.531Z,100.00
2018-06-07T18:43:49.705Z,100.00
2018-06-07T18:46:17.878Z,100.00
2018-06-07T18:48:46.077Z,100.00
2018-06-07T18:51:14.207Z,100.00
2018-06-07T18:53:42.390Z,100.00
2018-06-07T18:56:10.575Z,100.00
2018-06-07T18:58:38.751Z,100.00
2018-06-07T19:01:06.907Z,100.00
2018-06-07T19:03:35.070Z,100.00
2018-06-07T19:06:03.239Z,100.00
2018-06-07T19:08:36.614Z,100.00
2018-06-07T19:11:04.770Z,100.00
2018-06-07T19:13:38.542Z,100.00
2018-06-07T19:16:06.699Z,100.00
2018-06-07T19:18:34.850Z,100.00
2018-06-07T19:21:03.022Z,100.00
2018-06-07T19:23:31.181Z,100.00
2018-06-07T19:26:04.642Z,100.00
2018-06-07T19:28:32.791Z,100.00
2018-06-07T19:31:00.954Z,100.00
2018-06-07T19:33:34.358Z,100.00
2018-06-07T19:36:09.551Z,100.00
2018-06-07T19:38:42.021Z,100.00
2018-06-07T19:41:15.394Z,100.00
2018-06-07T19:43:43.558Z,100.00
2018-06-07T19:46:11.734Z,100.00
2018-06-07T19:48:39.910Z,100.00
2018-06-07T19:51:08.086Z,100.00
2018-06-07T19:53:36.270Z,100.00
2018-06-07T19:56:04.438Z,100.00
2018-06-07T19:58:32.607Z,100.00
2018-06-07T20:01:00.774Z,100.00
2018-06-07T20:03:28.942Z,100.00
2018-06-07T20:05:57.106Z,100.00
2018-06-07T20:08:25.312Z,100.00
2018-06-07T20:10:53.414Z,100.00
2018-06-07T20:13:21.579Z,100.00
2018-06-07T20:15:49.734Z,100.00
2018-06-07T20:18:17.906Z,100.00
2018-06-07T20:20:46.067Z,100.00
2018-06-07T20:23:14.390Z,100.00
2018-06-07T20:25:42.544Z,100.00
2018-06-07T20:28:10.710Z,100.00
2018-06-07T20:30:38.863Z,100.00
2018-06-07T20:33:07.042Z,100.00
2018-06-07T20:35:35.198Z,100.00
2018-06-07T20:38:03.370Z,100.00
2018-06-07T20:40:31.523Z,100.00
2018-06-07T20:42:59.685Z,100.00
2018-06-07T20:45:27.834Z,100.00
2018-06-07T20:47:55.994Z,100.00
2018-06-07T20:50:24.187Z,100.00
2018-06-07T20:52:52.321Z,100.00
2018-06-07T20:55:20.474Z,100.00
2018-06-07T20:57:48.638Z,100.00
2018-06-07T21:00:16.803Z,100.00
2018-06-07T21:02:44.962Z,100.00
2018-06-07T21:05:13.142Z,100.00
2018-06-07T21:07:41.291Z,100.00
2018-06-07T21:10:09.450Z,100.00
2018-06-07T21:12:37.619Z,100.00
2018-06-07T21:15:05.850Z,100.00
2018-06-07T21:17:34.008Z,100.00
2018-06-07T21:20:02.172Z,100.00
2018-06-07T21:22:30.314Z,100.00
2018-06-07T21:24:58.595Z,100.00
2018-06-07T21:27:26.732Z,100.00
2018-06-07T21:29:54.890Z,100.00
2018-06-07T21:32:23.054Z,100.00
2018-06-07T21:34:51.210Z,100.00
2018-06-07T21:37:19.375Z,100.00
2018-06-07T21:39:47.543Z,100.00
2018-06-07T21:42:15.708Z,100.00
2018-06-07T21:44:43.885Z,100.00
2018-06-07T21:47:12.051Z,100.00
2018-06-07T21:49:40.210Z,100.00
2018-06-07T21:52:08.375Z,100.00
2018-06-07T21:54:36.533Z,100.00
2018-06-07T21:57:04.687Z,100.00
2018-06-07T21:59:32.849Z,100.00
2018-06-07T22:02:01.030Z,100.00
2018-06-07T22:04:29.194Z,100.00
2018-06-07T22:06:57.355Z,100.00
2018-06-07T22:09:25.510Z,100.00
2018-06-07T22:11:53.671Z,100.00
2018-06-07T22:14:21.846Z,100.00
2018-06-07T22:16:50.011Z,100.00
2018-06-07T22:19:18.174Z,100.00
2018-06-07T22:21:46.583Z,100.00
2018-06-07T22:24:14.718Z,100.00
2018-06-07T22:26:42.918Z,100.00
2018-06-07T22:29:11.078Z,100.00
2018-06-07T22:31:39.250Z,100.00
2018-06-07T22:34:07.414Z,100.00
2018-06-07T22:36:35.582Z,100.00
2018-06-07T22:39:04.393Z,100.00
2018-06-07T22:41:32.559Z,100.00
2018-06-07T22:44:00.719Z,100.00
2018-06-07T22:46:28.898Z,100.00
2018-06-07T22:48:57.054Z,100.00
2018-06-07T22:51:25.230Z,100.00
2018-06-07T22:53:53.402Z,100.00
2018-06-07T22:56:21.586Z,100.00
2018-06-07T22:58:49.763Z,100.00
2018-06-07T23:01:17.922Z,100.00
2018-06-07T23:03:46.082Z,100.00
2018-06-07T23:06:14.238Z,100.00
2018-06-07T23:08:42.631Z,100.00
2018-06-07T23:11:10.806Z,100.00
2018-06-07T23:13:38.974Z,100.00
2018-06-07T23:16:07.142Z,100.00
2018-06-07T23:18:35.306Z,100.00
2018-06-07T23:21:03.478Z,100.00
2018-06-07T23:23:31.646Z,100.00
2018-06-07T23:25:59.805Z,100.00
2018-06-07T23:28:27.966Z,100.00
2018-06-07T23:30:56.122Z,100.00
2018-06-07T23:33:24.294Z,100.00
2018-06-07T23:35:52.451Z,100.00
2018-06-07T23:38:20.606Z,100.00
2018-06-07T23:40:48.765Z,100.00
2018-06-07T23:43:16.990Z,100.00
2018-06-07T23:45:45.546Z,100.00
2018-06-07T23:48:13.710Z,100.00
2018-06-07T23:50:41.879Z,100.00
2018-06-07T23:53:10.033Z,100.00
2018-06-07T23:55:38.218Z,100.00
2018-06-07T23:58:06.377Z,100.00
